Brasov, Romania
Current Conditions -  °F | °C
As of 10:00 PM on Friday 24 Oct 2014 (Local Time) from LRSB Reporting Station
Broken Clouds Broken Clouds  
Wind Chill: 37°   Ceiling: 5300
Heat Index: 43°   Visibility: 6mi
Dew Point: 34°   Wind: 12mph
Humidity: 70%   Direction: 110°ESE
Pressure: 30.12"   Gusts: NA
Location:  45.66°N, 25.61°E
Report Text: LRSB 241900Z 11010KT 9999 SCT022 BKN053 06/01 Q1020
Loading
Personal Weather Stations






























Interactive Weather Map
Tropical Storm Tracking
New forecast layout! Learn more

10-Day Weather Forecast

Advertisements
Track Severe Weather on mobile